Qashlu, Yemen
Current Conditions -  °F | °C
As of 8:50 PM on Friday 28 Nov 2014 (Local Time) from OOSA Reporting Station
Clear Clear  
Wind Chill: 77°   Ceiling: Unl
Heat Index: 79°   Visibility: 6mi
Dew Point: 57°   Wind: 3mph
Humidity: 50%   Direction: NA
Pressure: 29.97"   Gusts: NA
Location:  12.61°N, 53.86°E
Report Text: OOSA 281750Z VRB03KT CAVOK 25/14 Q1015 NOSIGRMK00 RH49
Loading
Personal Weather Stations






























Interactive Weather Map New forecast layout! Learn more

10-Day Weather Forecast

Advertisements
Track Severe Weather on mobile